sensor_id;sensor_type;location;lat;lon;timestamp;P1;durP1;ratioP1;P2;durP2;ratioP2
18853;SDS011;9556;49.374;19.446;2023-07-20T00:00:31;5.88;;;3.35;;
18853;SDS011;9556;49.374;19.446;2023-07-20T00:03:09;4.93;;;3.05;;
18853;SDS011;9556;49.374;19.446;2023-07-20T00:05:37;3.78;;;3.00;;
18853;SDS011;9556;49.374;19.446;2023-07-20T00:08:05;4.00;;;3.10;;
18853;SDS011;9556;49.374;19.446;2023-07-20T00:10:33;5.22;;;3.30;;
18853;SDS011;9556;49.374;19.446;2023-07-20T00:13:01;4.72;;;3.08;;
18853;SDS011;9556;49.374;19.446;2023-07-20T00:15:28;4.20;;;3.28;;
18853;SDS011;9556;49.374;19.446;2023-07-20T00:17:55;4.85;;;3.00;;
18853;SDS011;9556;49.374;19.446;2023-07-20T00:20:23;5.22;;;3.10;;
18853;SDS011;9556;49.374;19.446;2023-07-20T00:22:51;5.40;;;3.38;;
18853;SDS011;9556;49.374;19.446;2023-07-20T00:25:20;4.72;;;3.05;;
18853;SDS011;9556;49.374;19.446;2023-07-20T00:27:48;5.18;;;3.13;;
18853;SDS011;9556;49.374;19.446;2023-07-20T00:30:15;5.57;;;2.85;;
18853;SDS011;9556;49.374;19.446;2023-07-20T00:32:43;4.60;;;2.92;;
18853;SDS011;9556;49.374;19.446;2023-07-20T00:35:10;6.07;;;3.13;;
18853;SDS011;9556;49.374;19.446;2023-07-20T00:37:38;5.47;;;2.95;;
18853;SDS011;9556;49.374;19.446;2023-07-20T00:40:06;6.10;;;3.50;;
18853;SDS011;9556;49.374;19.446;2023-07-20T00:42:33;6.03;;;3.15;;
18853;SDS011;9556;49.374;19.446;2023-07-20T00:45:02;5.78;;;3.30;;
18853;SDS011;9556;49.374;19.446;2023-07-20T00:47:29;5.82;;;3.13;;
18853;SDS011;9556;49.374;19.446;2023-07-20T00:49:57;3.95;;;3.08;;
18853;SDS011;9556;49.374;19.446;2023-07-20T00:52:24;4.30;;;2.95;;
18853;SDS011;9556;49.374;19.446;2023-07-20T00:54:52;5.38;;;2.97;;
18853;SDS011;9556;49.374;19.446;2023-07-20T00:57:21;4.00;;;3.00;;
18853;SDS011;9556;49.374;19.446;2023-07-20T00:59:49;5.85;;;3.03;;
18853;SDS011;9556;49.374;19.446;2023-07-20T01:02:18;7.00;;;3.08;;
18853;SDS011;9556;49.374;19.446;2023-07-20T01:04:45;4.43;;;3.03;;
18853;SDS011;9556;49.374;19.446;2023-07-20T01:07:13;3.95;;;3.13;;
18853;SDS011;9556;49.374;19.446;2023-07-20T01:09:42;6.03;;;2.80;;
18853;SDS011;9556;49.374;19.446;2023-07-20T01:12:12;4.68;;;3.20;;
18853;SDS011;9556;49.374;19.446;2023-07-20T01:14:40;7.38;;;3.10;;
18853;SDS011;9556;49.374;19.446;2023-07-20T01:17:08;4.55;;;2.80;;
18853;SDS011;9556;49.374;19.446;2023-07-20T01:19:36;4.00;;;2.85;;
18853;SDS011;9556;49.374;19.446;2023-07-20T01:22:08;4.78;;;3.13;;
18853;SDS011;9556;49.374;19.446;2023-07-20T01:24:51;4.80;;;3.15;;
18853;SDS011;9556;49.374;19.446;2023-07-20T01:27:36;4.68;;;2.92;;
18853;SDS011;9556;49.374;19.446;2023-07-20T01:30:16;4.32;;;3.08;;
18853;SDS011;9556;49.374;19.446;2023-07-20T01:32:46;4.30;;;3.00;;
18853;SDS011;9556;49.374;19.446;2023-07-20T01:35:14;6.13;;;3.15;;
18853;SDS011;9556;49.374;19.446;2023-07-20T01:37:43;4.32;;;2.80;;
18853;SDS011;9556;49.374;19.446;2023-07-20T01:40:12;3.70;;;2.72;;
18853;SDS011;9556;49.374;19.446;2023-07-20T01:42:43;4.47;;;2.83;;
18853;SDS011;9556;49.374;19.446;2023-07-20T01:45:10;5.22;;;2.95;;
18853;SDS011;9556;49.374;19.446;2023-07-20T01:47:37;5.50;;;2.80;;
18853;SDS011;9556;49.374;19.446;2023-07-20T01:50:07;4.15;;;3.00;;
18853;SDS011;9556;49.374;19.446;2023-07-20T01:52:34;3.53;;;2.67;;
18853;SDS011;9556;49.374;19.446;2023-07-20T01:55:01;4.90;;;3.00;;
18853;SDS011;9556;49.374;19.446;2023-07-20T01:57:29;4.78;;;3.10;;
18853;SDS011;9556;49.374;19.446;2023-07-20T01:59:56;4.43;;;2.92;;
18853;SDS011;9556;49.374;19.446;2023-07-20T02:02:25;4.00;;;2.92;;
18853;SDS011;9556;49.374;19.446;2023-07-20T02:04:53;3.65;;;2.70;;
18853;SDS011;9556;49.374;19.446;2023-07-20T02:07:21;5.35;;;3.03;;
18853;SDS011;9556;49.374;19.446;2023-07-20T02:09:49;4.25;;;3.15;;
18853;SDS011;9556;49.374;19.446;2023-07-20T02:12:16;4.40;;;2.95;;
18853;SDS011;9556;49.374;19.446;2023-07-20T02:14:43;4.78;;;2.83;;
18853;SDS011;9556;49.374;19.446;2023-07-20T02:17:10;3.25;;;2.75;;
18853;SDS011;9556;49.374;19.446;2023-07-20T02:19:37;4.05;;;3.08;;
18853;SDS011;9556;49.374;19.446;2023-07-20T02:22:05;3.53;;;2.83;;
18853;SDS011;9556;49.374;19.446;2023-07-20T02:24:33;4.93;;;3.10;;
18853;SDS011;9556;49.374;19.446;2023-07-20T02:27:01;6.82;;;3.08;;
18853;SDS011;9556;49.374;19.446;2023-07-20T02:29:28;4.13;;;3.05;;
18853;SDS011;9556;49.374;19.446;2023-07-20T02:31:55;5.15;;;3.10;;
18853;SDS011;9556;49.374;19.446;2023-07-20T02:34:22;8.05;;;2.97;;
18853;SDS011;9556;49.374;19.446;2023-07-20T02:36:49;6.38;;;3.10;;
18853;SDS011;9556;49.374;19.446;2023-07-20T02:39:17;4.72;;;3.30;;
18853;SDS011;9556;49.374;19.446;2023-07-20T02:41:45;5.07;;;2.92;;
18853;SDS011;9556;49.374;19.446;2023-07-20T02:44:13;4.03;;;2.95;;
18853;SDS011;9556;49.374;19.446;2023-07-20T02:46:40;5.43;;;3.00;;
18853;SDS011;9556;49.374;19.446;2023-07-20T02:49:07;5.32;;;3.05;;
18853;SDS011;9556;49.374;19.446;2023-07-20T02:51:35;5.00;;;3.30;;
18853;SDS011;9556;49.374;19.446;2023-07-20T02:54:02;3.90;;;3.17;;
18853;SDS011;9556;49.374;19.446;2023-07-20T02:56:29;4.15;;;3.00;;
18853;SDS011;9556;49.374;19.446;2023-07-20T02:58:58;5.22;;;3.30;;
18853;SDS011;9556;49.374;19.446;2023-07-20T03:01:25;7.03;;;3.05;;
18853;SDS011;9556;49.374;19.446;2023-07-20T03:03:54;5.45;;;3.25;;
18853;SDS011;9556;49.374;19.446;2023-07-20T03:06:21;5.72;;;2.88;;
18853;SDS011;9556;49.374;19.446;2023-07-20T03:08:48;5.47;;;3.13;;
18853;SDS011;9556;49.374;19.446;2023-07-20T03:11:17;3.88;;;3.05;;
18853;SDS011;9556;49.374;19.446;2023-07-20T03:13:44;5.22;;;3.00;;
18853;SDS011;9556;49.374;19.446;2023-07-20T03:16:13;4.82;;;3.10;;
18853;SDS011;9556;49.374;19.446;2023-07-20T03:18:42;4.88;;;3.20;;
18853;SDS011;9556;49.374;19.446;2023-07-20T03:21:10;4.20;;;3.20;;
18853;SDS011;9556;49.374;19.446;2023-07-20T03:23:38;4.25;;;2.90;;
18853;SDS011;9556;49.374;19.446;2023-07-20T03:26:05;6.35;;;2.70;;
18853;SDS011;9556;49.374;19.446;2023-07-20T03:28:33;4.68;;;3.17;;
18853;SDS011;9556;49.374;19.446;2023-07-20T03:31:00;6.35;;;3.20;;
18853;SDS011;9556;49.374;19.446;2023-07-20T03:33:29;4.05;;;2.90;;
18853;SDS011;9556;49.374;19.446;2023-07-20T03:35:56;5.10;;;3.10;;
18853;SDS011;9556;49.374;19.446;2023-07-20T03:38:24;4.25;;;2.97;;
18853;SDS011;9556;49.374;19.446;2023-07-20T03:40:51;4.82;;;2.92;;
18853;SDS011;9556;49.374;19.446;2023-07-20T03:43:19;5.45;;;3.50;;
18853;SDS011;9556;49.374;19.446;2023-07-20T03:45:46;4.90;;;3.30;;
18853;SDS011;9556;49.374;19.446;2023-07-20T03:48:14;5.10;;;2.90;;
18853;SDS011;9556;49.374;19.446;2023-07-20T03:50:43;5.57;;;3.60;;
18853;SDS011;9556;49.374;19.446;2023-07-20T03:53:11;4.78;;;3.15;;
18853;SDS011;9556;49.374;19.446;2023-07-20T03:55:39;5.07;;;3.35;;
18853;SDS011;9556;49.374;19.446;2023-07-20T03:58:06;5.05;;;3.13;;
18853;SDS011;9556;49.374;19.446;2023-07-20T04:00:34;5.57;;;3.50;;
18853;SDS011;9556;49.374;19.446;2023-07-20T04:03:01;6.35;;;3.20;;
18853;SDS011;9556;49.374;19.446;2023-07-20T04:05:28;4.40;;;3.03;;
18853;SDS011;9556;49.374;19.446;2023-07-20T04:07:57;4.15;;;3.30;;
18853;SDS011;9556;49.374;19.446;2023-07-20T04:10:24;5.35;;;3.30;;
18853;SDS011;9556;49.374;19.446;2023-07-20T04:12:51;5.32;;;3.40;;
18853;SDS011;9556;49.374;19.446;2023-07-20T04:15:18;4.28;;;3.10;;
18853;SDS011;9556;49.374;19.446;2023-07-20T04:17:45;4.97;;;3.40;;
18853;SDS011;9556;49.374;19.446;2023-07-20T04:20:12;4.85;;;3.15;;
18853;SDS011;9556;49.374;19.446;2023-07-20T04:22:39;5.72;;;3.40;;
18853;SDS011;9556;49.374;19.446;2023-07-20T04:25:08;4.63;;;2.92;;
18853;SDS011;9556;49.374;19.446;2023-07-20T04:27:36;3.67;;;2.95;;
18853;SDS011;9556;49.374;19.446;2023-07-20T04:30:03;4.90;;;3.20;;
18853;SDS011;9556;49.374;19.446;2023-07-20T04:32:30;4.22;;;2.90;;
18853;SDS011;9556;49.374;19.446;2023-07-20T04:34:59;6.43;;;3.22;;
18853;SDS011;9556;49.374;19.446;2023-07-20T04:37:26;5.35;;;3.03;;
18853;SDS011;9556;49.374;19.446;2023-07-20T04:39:53;5.88;;;3.15;;
18853;SDS011;9556;49.374;19.446;2023-07-20T04:42:21;5.50;;;3.10;;
18853;SDS011;9556;49.374;19.446;2023-07-20T04:44:48;3.15;;;2.70;;
18853;SDS011;9556;49.374;19.446;2023-07-20T04:47:16;3.85;;;3.08;;
18853;SDS011;9556;49.374;19.446;2023-07-20T04:49:43;4.65;;;3.08;;
18853;SDS011;9556;49.374;19.446;2023-07-20T04:52:10;5.40;;;2.88;;
18853;SDS011;9556;49.374;19.446;2023-07-20T04:54:37;5.13;;;3.33;;
18853;SDS011;9556;49.374;19.446;2023-07-20T04:57:19;4.90;;;3.40;;
18853;SDS011;9556;49.374;19.446;2023-07-20T05:00:06;5.03;;;3.55;;
18853;SDS011;9556;49.374;19.446;2023-07-20T05:02:36;6.82;;;3.72;;
18853;SDS011;9556;49.374;19.446;2023-07-20T05:05:03;5.93;;;3.35;;
18853;SDS011;9556;49.374;19.446;2023-07-20T05:07:31;6.72;;;3.08;;
18853;SDS011;9556;49.374;19.446;2023-07-20T05:09:58;6.70;;;3.22;;
18853;SDS011;9556;49.374;19.446;2023-07-20T05:12:25;5.55;;;2.97;;
18853;SDS011;9556;49.374;19.446;2023-07-20T05:14:52;5.72;;;2.80;;
18853;SDS011;9556;49.374;19.446;2023-07-20T05:17:21;6.85;;;2.90;;
18853;SDS011;9556;49.374;19.446;2023-07-20T05:19:50;6.43;;;2.97;;
18853;SDS011;9556;49.374;19.446;2023-07-20T05:22:17;4.25;;;2.67;;
18853;SDS011;9556;49.374;19.446;2023-07-20T05:24:44;5.88;;;2.95;;
18853;SDS011;9556;49.374;19.446;2023-07-20T05:27:14;7.93;;;2.90;;
18853;SDS011;9556;49.374;19.446;2023-07-20T05:29:43;3.97;;;2.53;;
18853;SDS011;9556;49.374;19.446;2023-07-20T05:32:10;5.03;;;2.90;;
18853;SDS011;9556;49.374;19.446;2023-07-20T05:34:39;4.55;;;2.63;;
18853;SDS011;9556;49.374;19.446;2023-07-20T05:37:06;6.32;;;3.30;;
18853;SDS011;9556;49.374;19.446;2023-07-20T05:39:33;4.97;;;2.97;;
18853;SDS011;9556;49.374;19.446;2023-07-20T05:42:00;4.35;;;2.60;;
18853;SDS011;9556;49.374;19.446;2023-07-20T05:44:28;6.57;;;2.78;;
18853;SDS011;9556;49.374;19.446;2023-07-20T05:46:55;5.15;;;2.78;;
18853;SDS011;9556;49.374;19.446;2023-07-20T05:49:22;4.43;;;2.70;;
18853;SDS011;9556;49.374;19.446;2023-07-20T05:51:50;5.13;;;2.60;;
18853;SDS011;9556;49.374;19.446;2023-07-20T05:54:18;5.35;;;2.72;;
18853;SDS011;9556;49.374;19.446;2023-07-20T05:56:45;5.72;;;2.67;;
18853;SDS011;9556;49.374;19.446;2023-07-20T05:59:12;6.43;;;2.67;;
18853;SDS011;9556;49.374;19.446;2023-07-20T06:01:40;5.95;;;2.50;;
18853;SDS011;9556;49.374;19.446;2023-07-20T06:04:07;5.18;;;2.70;;
18853;SDS011;9556;49.374;19.446;2023-07-20T06:06:34;6.43;;;3.00;;
18853;SDS011;9556;49.374;19.446;2023-07-20T06:09:02;5.32;;;2.60;;
18853;SDS011;9556;49.374;19.446;2023-07-20T06:11:32;3.33;;;2.30;;
18853;SDS011;9556;49.374;19.446;2023-07-20T06:14:00;5.60;;;2.65;;
18853;SDS011;9556;49.374;19.446;2023-07-20T06:16:27;3.08;;;2.17;;
18853;SDS011;9556;49.374;19.446;2023-07-20T06:18:54;5.13;;;2.58;;
18853;SDS011;9556;49.374;19.446;2023-07-20T06:21:22;4.60;;;2.42;;
18853;SDS011;9556;49.374;19.446;2023-07-20T06:23:49;4.20;;;2.40;;
18853;SDS011;9556;49.374;19.446;2023-07-20T06:26:18;3.30;;;2.40;;
18853;SDS011;9556;49.374;19.446;2023-07-20T06:28:46;4.47;;;2.80;;
18853;SDS011;9556;49.374;19.446;2023-07-20T06:31:13;3.95;;;2.33;;
18853;SDS011;9556;49.374;19.446;2023-07-20T06:33:40;3.00;;;2.40;;
18853;SDS011;9556;49.374;19.446;2023-07-20T06:36:07;4.28;;;2.28;;
18853;SDS011;9556;49.374;19.446;2023-07-20T06:38:34;5.47;;;2.40;;
18853;SDS011;9556;49.374;19.446;2023-07-20T06:41:02;5.00;;;2.50;;
18853;SDS011;9556;49.374;19.446;2023-07-20T06:43:30;3.72;;;2.55;;
18853;SDS011;9556;49.374;19.446;2023-07-20T06:45:57;4.03;;;2.53;;
18853;SDS011;9556;49.374;19.446;2023-07-20T06:48:24;6.00;;;2.30;;
18853;SDS011;9556;49.374;19.446;2023-07-20T06:50:52;3.00;;;2.15;;
18853;SDS011;9556;49.374;19.446;2023-07-20T06:53:19;3.35;;;2.20;;
18853;SDS011;9556;49.374;19.446;2023-07-20T06:55:46;5.03;;;2.30;;
18853;SDS011;9556;49.374;19.446;2023-07-20T06:58:13;4.22;;;2.42;;
18853;SDS011;9556;49.374;19.446;2023-07-20T07:00:42;5.65;;;2.50;;
18853;SDS011;9556;49.374;19.446;2023-07-20T07:03:09;2.70;;;2.35;;
18853;SDS011;9556;49.374;19.446;2023-07-20T07:05:37;3.88;;;2.30;;
18853;SDS011;9556;49.374;19.446;2023-07-20T07:08:04;3.97;;;2.33;;
18853;SDS011;9556;49.374;19.446;2023-07-20T07:10:31;4.50;;;2.55;;
18853;SDS011;9556;49.374;19.446;2023-07-20T07:12:58;3.38;;;2.35;;
18853;SDS011;9556;49.374;19.446;2023-07-20T07:15:26;2.85;;;2.00;;
18853;SDS011;9556;49.374;19.446;2023-07-20T07:17:54;3.78;;;2.20;;
18853;SDS011;9556;49.374;19.446;2023-07-20T07:20:22;4.50;;;2.00;;
18853;SDS011;9556;49.374;19.446;2023-07-20T07:22:50;3.40;;;2.45;;
18853;SDS011;9556;49.374;19.446;2023-07-20T07:25:18;3.10;;;2.00;;
18853;SDS011;9556;49.374;19.446;2023-07-20T07:27:45;5.30;;;2.30;;
18853;SDS011;9556;49.374;19.446;2023-07-20T07:30:12;3.75;;;2.40;;
18853;SDS011;9556;49.374;19.446;2023-07-20T07:32:40;3.38;;;2.13;;
18853;SDS011;9556;49.374;19.446;2023-07-20T07:35:08;3.75;;;2.05;;
18853;SDS011;9556;49.374;19.446;2023-07-20T07:37:36;2.67;;;2.05;;
18853;SDS011;9556;49.374;19.446;2023-07-20T07:40:04;3.47;;;2.10;;
18853;SDS011;9556;49.374;19.446;2023-07-20T07:42:32;3.15;;;2.20;;
18853;SDS011;9556;49.374;19.446;2023-07-20T07:44:59;3.08;;;2.40;;
18853;SDS011;9556;49.374;19.446;2023-07-20T07:47:26;2.47;;;2.10;;
18853;SDS011;9556;49.374;19.446;2023-07-20T07:49:53;2.80;;;2.03;;
18853;SDS011;9556;49.374;19.446;2023-07-20T07:52:22;3.80;;;2.00;;
18853;SDS011;9556;49.374;19.446;2023-07-20T07:54:49;3.45;;;2.50;;
18853;SDS011;9556;49.374;19.446;2023-07-20T07:57:16;3.25;;;2.20;;
18853;SDS011;9556;49.374;19.446;2023-07-20T07:59:43;2.95;;;1.95;;
18853;SDS011;9556;49.374;19.446;2023-07-20T08:02:11;3.60;;;2.10;;
18853;SDS011;9556;49.374;19.446;2023-07-20T08:04:38;2.55;;;2.20;;
18853;SDS011;9556;49.374;19.446;2023-07-20T08:07:05;4.30;;;2.13;;
18853;SDS011;9556;49.374;19.446;2023-07-20T08:09:33;2.85;;;2.10;;
18853;SDS011;9556;49.374;19.446;2023-07-20T08:12:01;3.30;;;2.20;;
18853;SDS011;9556;49.374;19.446;2023-07-20T08:14:28;4.05;;;2.35;;
18853;SDS011;9556;49.374;19.446;2023-07-20T08:16:55;3.22;;;2.15;;
18853;SDS011;9556;49.374;19.446;2023-07-20T08:19:23;3.60;;;2.30;;
18853;SDS011;9556;49.374;19.446;2023-07-20T08:21:50;2.45;;;1.80;;
18853;SDS011;9556;49.374;19.446;2023-07-20T08:24:17;3.05;;;2.20;;
18853;SDS011;9556;49.374;19.446;2023-07-20T08:26:46;2.13;;;1.77;;
18853;SDS011;9556;49.374;19.446;2023-07-20T08:29:13;3.97;;;2.35;;
18853;SDS011;9556;49.374;19.446;2023-07-20T08:31:40;2.72;;;1.85;;
18853;SDS011;9556;49.374;19.446;2023-07-20T08:34:07;2.45;;;1.73;;
18853;SDS011;9556;49.374;19.446;2023-07-20T08:36:34;5.00;;;1.83;;
18853;SDS011;9556;49.374;19.446;2023-07-20T08:39:02;4.07;;;1.90;;
18853;SDS011;9556;49.374;19.446;2023-07-20T08:41:29;2.30;;;2.00;;
18853;SDS011;9556;49.374;19.446;2023-07-20T08:43:58;2.80;;;2.10;;
18853;SDS011;9556;49.374;19.446;2023-07-20T08:46:25;3.20;;;2.17;;
18853;SDS011;9556;49.374;19.446;2023-07-20T08:48:53;3.50;;;2.30;;
18853;SDS011;9556;49.374;19.446;2023-07-20T08:51:21;2.42;;;2.03;;
18853;SDS011;9556;49.374;19.446;2023-07-20T08:53:49;2.47;;;2.15;;
18853;SDS011;9556;49.374;19.446;2023-07-20T08:56:17;3.03;;;2.33;;
18853;SDS011;9556;49.374;19.446;2023-07-20T08:58:46;3.22;;;2.28;;
18853;SDS011;9556;49.374;19.446;2023-07-20T09:01:15;2.85;;;2.03;;
18853;SDS011;9556;49.374;19.446;2023-07-20T09:03:44;2.65;;;1.90;;
18853;SDS011;9556;49.374;19.446;2023-07-20T09:06:12;3.15;;;2.17;;
18853;SDS011;9556;49.374;19.446;2023-07-20T09:08:39;3.35;;;1.90;;
18853;SDS011;9556;49.374;19.446;2023-07-20T09:11:06;3.20;;;2.08;;
18853;SDS011;9556;49.374;19.446;2023-07-20T09:13:33;3.15;;;2.10;;
18853;SDS011;9556;49.374;19.446;2023-07-20T09:16:01;2.67;;;2.08;;
18853;SDS011;9556;49.374;19.446;2023-07-20T09:18:31;2.88;;;2.00;;
18853;SDS011;9556;49.374;19.446;2023-07-20T09:21:00;2.55;;;2.03;;
18853;SDS011;9556;49.374;19.446;2023-07-20T09:23:32;4.70;;;3.47;;
18853;SDS011;9556;49.374;19.446;2023-07-20T09:25:59;3.83;;;2.60;;
18853;SDS011;9556;49.374;19.446;2023-07-20T09:28:26;4.72;;;3.00;;
18853;SDS011;9556;49.374;19.446;2023-07-20T09:30:54;4.05;;;2.63;;
18853;SDS011;9556;49.374;19.446;2023-07-20T09:33:23;4.65;;;2.45;;
18853;SDS011;9556;49.374;19.446;2023-07-20T09:35:52;4.03;;;2.58;;
18853;SDS011;9556;49.374;19.446;2023-07-20T09:38:19;3.35;;;2.40;;
18853;SDS011;9556;49.374;19.446;2023-07-20T09:40:46;3.45;;;2.30;;
18853;SDS011;9556;49.374;19.446;2023-07-20T09:43:15;4.38;;;2.63;;
18853;SDS011;9556;49.374;19.446;2023-07-20T09:45:43;4.88;;;2.40;;
18853;SDS011;9556;49.374;19.446;2023-07-20T09:48:10;3.03;;;2.20;;
18853;SDS011;9556;49.374;19.446;2023-07-20T09:50:41;2.08;;;1.70;;
18853;SDS011;9556;49.374;19.446;2023-07-20T09:53:11;3.05;;;2.30;;
18853;SDS011;9556;49.374;19.446;2023-07-20T09:55:39;3.10;;;2.20;;
18853;SDS011;9556;49.374;19.446;2023-07-20T09:58:08;2.85;;;2.10;;
18853;SDS011;9556;49.374;19.446;2023-07-20T10:00:36;3.35;;;2.10;;
18853;SDS011;9556;49.374;19.446;2023-07-20T10:03:04;3.03;;;2.33;;
18853;SDS011;9556;49.374;19.446;2023-07-20T10:05:32;3.03;;;2.13;;
18853;SDS011;9556;49.374;19.446;2023-07-20T10:08:00;2.58;;;2.00;;
18853;SDS011;9556;49.374;19.446;2023-07-20T10:10:32;3.25;;;2.10;;
18853;SDS011;9556;49.374;19.446;2023-07-20T10:13:01;2.72;;;1.92;;
18853;SDS011;9556;49.374;19.446;2023-07-20T10:15:29;2.75;;;2.03;;
18853;SDS011;9556;49.374;19.446;2023-07-20T10:17:59;3.47;;;2.38;;
18853;SDS011;9556;49.374;19.446;2023-07-20T10:20:29;2.47;;;1.88;;
18853;SDS011;9556;49.374;19.446;2023-07-20T10:22:56;4.50;;;2.30;;
18853;SDS011;9556;49.374;19.446;2023-07-20T10:25:24;2.40;;;1.90;;
18853;SDS011;9556;49.374;19.446;2023-07-20T10:27:52;2.78;;;1.80;;
18853;SDS011;9556;49.374;19.446;2023-07-20T10:30:20;2.83;;;1.98;;
18853;SDS011;9556;49.374;19.446;2023-07-20T10:32:47;2.28;;;2.03;;
18853;SDS011;9556;49.374;19.446;2023-07-20T10:35:15;2.88;;;1.90;;
18853;SDS011;9556;49.374;19.446;2023-07-20T10:37:47;2.85;;;1.85;;
18853;SDS011;9556;49.374;19.446;2023-07-20T10:40:24;2.65;;;2.00;;
18853;SDS011;9556;49.374;19.446;2023-07-20T10:42:56;2.55;;;1.98;;
18853;SDS011;9556;49.374;19.446;2023-07-20T10:45:32;2.13;;;1.77;;
18853;SDS011;9556;49.374;19.446;2023-07-20T10:48:02;2.40;;;1.90;;
18853;SDS011;9556;49.374;19.446;2023-07-20T10:50:29;4.32;;;1.95;;
18853;SDS011;9556;49.374;19.446;2023-07-20T10:53:09;2.00;;;1.80;;
18853;SDS011;9556;49.374;19.446;2023-07-20T10:55:37;2.30;;;1.73;;
18853;SDS011;9556;49.374;19.446;2023-07-20T10:58:09;2.88;;;1.90;;
18853;SDS011;9556;49.374;19.446;2023-07-20T11:00:37;3.13;;;1.90;;
18853;SDS011;9556;49.374;19.446;2023-07-20T11:03:04;2.33;;;1.70;;
18853;SDS011;9556;49.374;19.446;2023-07-20T11:05:35;2.90;;;1.90;;
18853;SDS011;9556;49.374;19.446;2023-07-20T11:08:04;2.25;;;1.77;;
18853;SDS011;9556;49.374;19.446;2023-07-20T11:10:31;2.47;;;1.70;;
18853;SDS011;9556;49.374;19.446;2023-07-20T11:13:19;2.10;;;1.60;;
18853;SDS011;9556;49.374;19.446;2023-07-20T11:15:48;2.42;;;1.85;;
18853;SDS011;9556;49.374;19.446;2023-07-20T11:18:28;2.95;;;1.90;;
18853;SDS011;9556;49.374;19.446;2023-07-20T11:20:57;1.98;;;1.70;;
18853;SDS011;9556;49.374;19.446;2023-07-20T11:23:24;2.38;;;1.70;;
18853;SDS011;9556;49.374;19.446;2023-07-20T11:25:52;2.45;;;1.80;;
18853;SDS011;9556;49.374;19.446;2023-07-20T11:28:21;2.45;;;1.70;;
18853;SDS011;9556;49.374;19.446;2023-07-20T11:30:50;2.70;;;1.70;;
18853;SDS011;9556;49.374;19.446;2023-07-20T11:33:19;2.20;;;1.65;;
18853;SDS011;9556;49.374;19.446;2023-07-20T11:35:48;2.33;;;1.60;;
18853;SDS011;9556;49.374;19.446;2023-07-20T11:38:16;2.17;;;1.80;;
18853;SDS011;9556;49.374;19.446;2023-07-20T11:40:43;2.00;;;1.40;;
18853;SDS011;9556;49.374;19.446;2023-07-20T11:43:11;2.92;;;1.52;;
18853;SDS011;9556;49.374;19.446;2023-07-20T11:45:40;2.17;;;1.60;;
18853;SDS011;9556;49.374;19.446;2023-07-20T11:48:07;2.33;;;1.50;;
18853;SDS011;9556;49.374;19.446;2023-07-20T11:50:40;2.00;;;1.40;;
18853;SDS011;9556;49.374;19.446;2023-07-20T11:53:08;1.90;;;1.60;;
18853;SDS011;9556;49.374;19.446;2023-07-20T11:55:35;1.75;;;1.52;;
18853;SDS011;9556;49.374;19.446;2023-07-20T11:58:03;2.80;;;1.95;;
18853;SDS011;9556;49.374;19.446;2023-07-20T12:00:31;1.85;;;1.63;;
18853;SDS011;9556;49.374;19.446;2023-07-20T12:02:59;2.80;;;1.70;;
18853;SDS011;9556;49.374;19.446;2023-07-20T12:05:27;1.83;;;1.55;;
18853;SDS011;9556;49.374;19.446;2023-07-20T12:07:54;2.95;;;1.92;;
18853;SDS011;9556;49.374;19.446;2023-07-20T12:10:25;3.10;;;1.60;;
18853;SDS011;9556;49.374;19.446;2023-07-20T12:12:53;2.03;;;1.60;;
18853;SDS011;9556;49.374;19.446;2023-07-20T12:15:21;2.15;;;1.63;;
18853;SDS011;9556;49.374;19.446;2023-07-20T12:17:52;2.83;;;1.95;;
18853;SDS011;9556;49.374;19.446;2023-07-20T12:20:28;1.80;;;1.60;;
18853;SDS011;9556;49.374;19.446;2023-07-20T12:22:56;2.10;;;1.77;;
18853;SDS011;9556;49.374;19.446;2023-07-20T12:25:31;2.00;;;1.40;;
18853;SDS011;9556;49.374;19.446;2023-07-20T12:28:00;3.08;;;1.70;;
18853;SDS011;9556;49.374;19.446;2023-07-20T12:30:27;2.60;;;1.58;;
18853;SDS011;9556;49.374;19.446;2023-07-20T12:32:55;2.95;;;1.70;;
18853;SDS011;9556;49.374;19.446;2023-07-20T12:35:22;3.28;;;1.63;;
18853;SDS011;9556;49.374;19.446;2023-07-20T12:37:50;4.43;;;2.40;;
18853;SDS011;9556;49.374;19.446;2023-07-20T12:40:18;3.45;;;1.90;;
18853;SDS011;9556;49.374;19.446;2023-07-20T12:42:46;2.40;;;1.85;;
18853;SDS011;9556;49.374;19.446;2023-07-20T12:45:13;2.15;;;1.70;;
18853;SDS011;9556;49.374;19.446;2023-07-20T12:47:40;2.20;;;1.80;;
18853;SDS011;9556;49.374;19.446;2023-07-20T12:50:08;6.03;;;1.90;;
18853;SDS011;9556;49.374;19.446;2023-07-20T12:52:35;2.03;;;1.60;;
18853;SDS011;9556;49.374;19.446;2023-07-20T12:55:05;3.40;;;1.75;;
18853;SDS011;9556;49.374;19.446;2023-07-20T12:57:33;3.60;;;1.95;;
18853;SDS011;9556;49.374;19.446;2023-07-20T13:00:02;3.00;;;1.70;;
18853;SDS011;9556;49.374;19.446;2023-07-20T13:02:29;3.38;;;2.00;;
18853;SDS011;9556;49.374;19.446;2023-07-20T13:04:57;3.05;;;1.83;;
18853;SDS011;9556;49.374;19.446;2023-07-20T13:07:30;2.25;;;1.70;;
18853;SDS011;9556;49.374;19.446;2023-07-20T13:09:58;1.83;;;1.65;;
18853;SDS011;9556;49.374;19.446;2023-07-20T13:12:27;2.08;;;1.65;;
18853;SDS011;9556;49.374;19.446;2023-07-20T13:14:54;2.13;;;1.55;;
18853;SDS011;9556;49.374;19.446;2023-07-20T13:17:21;2.17;;;1.75;;
18853;SDS011;9556;49.374;19.446;2023-07-20T13:19:48;2.60;;;1.85;;
18853;SDS011;9556;49.374;19.446;2023-07-20T13:22:16;2.38;;;1.63;;
18853;SDS011;9556;49.374;19.446;2023-07-20T13:24:44;2.25;;;1.65;;
18853;SDS011;9556;49.374;19.446;2023-07-20T13:27:11;3.15;;;1.73;;
18853;SDS011;9556;49.374;19.446;2023-07-20T13:29:40;2.40;;;1.88;;
18853;SDS011;9556;49.374;19.446;2023-07-20T13:32:07;2.00;;;1.63;;
18853;SDS011;9556;49.374;19.446;2023-07-20T13:34:34;4.65;;;1.73;;
18853;SDS011;9556;49.374;19.446;2023-07-20T13:37:02;3.15;;;1.80;;
18853;SDS011;9556;49.374;19.446;2023-07-20T13:39:29;2.03;;;1.65;;
18853;SDS011;9556;49.374;19.446;2023-07-20T13:41:56;2.60;;;1.63;;
18853;SDS011;9556;49.374;19.446;2023-07-20T13:44:24;1.70;;;1.52;;
18853;SDS011;9556;49.374;19.446;2023-07-20T13:46:52;2.08;;;1.50;;
18853;SDS011;9556;49.374;19.446;2023-07-20T13:49:19;2.13;;;1.60;;
18853;SDS011;9556;49.374;19.446;2023-07-20T13:51:46;1.90;;;1.70;;
18853;SDS011;9556;49.374;19.446;2023-07-20T13:54:14;2.33;;;1.50;;
18853;SDS011;9556;49.374;19.446;2023-07-20T13:56:41;2.58;;;1.70;;
18853;SDS011;9556;49.374;19.446;2023-07-20T13:59:08;2.25;;;1.77;;
18853;SDS011;9556;49.374;19.446;2023-07-20T14:01:35;1.67;;;1.58;;
18853;SDS011;9556;49.374;19.446;2023-07-20T14:04:04;1.98;;;1.67;;
18853;SDS011;9556;49.374;19.446;2023-07-20T14:06:31;2.78;;;1.65;;
18853;SDS011;9556;49.374;19.446;2023-07-20T14:08:59;3.10;;;1.90;;
18853;SDS011;9556;49.374;19.446;2023-07-20T14:11:26;2.70;;;1.52;;
18853;SDS011;9556;49.374;19.446;2023-07-20T14:13:53;2.28;;;1.52;;
18853;SDS011;9556;49.374;19.446;2023-07-20T14:16:21;2.00;;;1.60;;
18853;SDS011;9556;49.374;19.446;2023-07-20T14:18:48;2.03;;;1.60;;
18853;SDS011;9556;49.374;19.446;2023-07-20T14:21:17;1.75;;;1.55;;
18853;SDS011;9556;49.374;19.446;2023-07-20T14:23:45;1.95;;;1.60;;
18853;SDS011;9556;49.374;19.446;2023-07-20T14:26:12;2.05;;;1.85;;
18853;SDS011;9556;49.374;19.446;2023-07-20T14:28:39;2.50;;;1.60;;
18853;SDS011;9556;49.374;19.446;2023-07-20T14:31:07;2.95;;;1.52;;
18853;SDS011;9556;49.374;19.446;2023-07-20T14:33:34;3.80;;;1.70;;
18853;SDS011;9556;49.374;19.446;2023-07-20T14:36:01;2.45;;;1.55;;
18853;SDS011;9556;49.374;19.446;2023-07-20T14:38:30;2.22;;;1.48;;
18853;SDS011;9556;49.374;19.446;2023-07-20T14:40:57;1.70;;;1.40;;
18853;SDS011;9556;49.374;19.446;2023-07-20T14:43:25;2.58;;;1.73;;
18853;SDS011;9556;49.374;19.446;2023-07-20T14:45:52;3.10;;;1.90;;
18853;SDS011;9556;49.374;19.446;2023-07-20T14:48:19;3.25;;;2.03;;
18853;SDS011;9556;49.374;19.446;2023-07-20T14:50:47;2.53;;;1.60;;
18853;SDS011;9556;49.374;19.446;2023-07-20T14:53:14;2.63;;;1.70;;